sensor_id;sensor_type;location;lat;lon;timestamp;pressure;altitude;pressure_sealevel;temperature;humidity
67818;BME280;54614;47.576;7.524;2023-03-14T00:02:10;97162.41;;;25.92;35.05
67818;BME280;54614;47.576;7.524;2023-03-14T00:04:36;97169.69;;;25.91;35.57
67818;BME280;54614;47.576;7.524;2023-03-14T00:07:03;97181.03;;;25.93;35.31
67818;BME280;54614;47.576;7.524;2023-03-14T00:09:29;97188.28;;;25.93;35.18
67818;BME280;54614;47.576;7.524;2023-03-14T00:11:56;97181.53;;;25.90;34.98
67818;BME280;54614;47.576;7.524;2023-03-14T00:14:23;97184.22;;;25.90;35.00
67818;BME280;54614;47.576;7.524;2023-03-14T00:16:49;97183.16;;;25.91;35.09
67818;BME280;54614;47.576;7.524;2023-03-14T00:19:15;97178.03;;;25.90;35.29
67818;BME280;54614;47.576;7.524;2023-03-14T00:21:41;97183.16;;;25.91;35.11
67818;BME280;54614;47.576;7.524;2023-03-14T00:24:08;97185.84;;;25.91;34.98
67818;BME280;54614;47.576;7.524;2023-03-14T00:26:34;97184.22;;;25.90;35.00
67818;BME280;54614;47.576;7.524;2023-03-14T00:29:00;97171.50;;;25.86;35.09
67818;BME280;54614;47.576;7.524;2023-03-14T00:31:26;97161.56;;;25.86;35.12
67818;BME280;54614;47.576;7.524;2023-03-14T00:33:53;97159.13;;;25.85;35.02
67818;BME280;54614;47.576;7.524;2023-03-14T00:36:20;97152.91;;;25.84;35.23
67818;BME280;54614;47.576;7.524;2023-03-14T00:38:49;97152.66;;;25.86;35.31
67818;BME280;54614;47.576;7.524;2023-03-14T00:41:19;97136.50;;;25.86;35.12
67818;BME280;54614;47.576;7.524;2023-03-14T00:43:46;97134.63;;;25.86;34.98
67818;BME280;54614;47.576;7.524;2023-03-14T00:46:12;97138.38;;;25.85;34.91
67818;BME280;54614;47.576;7.524;2023-03-14T00:48:38;97135.44;;;25.87;34.83
67818;BME280;54614;47.576;7.524;2023-03-14T00:51:06;97138.38;;;25.85;34.83
67818;BME280;54614;47.576;7.524;2023-03-14T00:53:37;97145.91;;;25.83;34.79
67818;BME280;54614;47.576;7.524;2023-03-14T00:56:07;97149.41;;;25.84;34.71
67818;BME280;54614;47.576;7.524;2023-03-14T00:58:33;97152.09;;;25.84;34.81
67818;BME280;54614;47.576;7.524;2023-03-14T01:00:58;97147.53;;;25.84;34.86
67818;BME280;54614;47.576;7.524;2023-03-14T01:03:24;97147.53;;;25.84;34.92
67818;BME280;54614;47.576;7.524;2023-03-14T01:05:50;97158.28;;;25.84;34.71
67818;BME280;54614;47.576;7.524;2023-03-14T01:08:16;97159.38;;;25.83;34.93
67818;BME280;54614;47.576;7.524;2023-03-14T01:10:42;97168.50;;;25.82;34.73
67818;BME280;54614;47.576;7.524;2023-03-14T01:13:09;97172.56;;;25.85;34.68
67818;BME280;54614;47.576;7.524;2023-03-14T01:15:36;97167.19;;;25.85;34.50
67818;BME280;54614;47.576;7.524;2023-03-14T01:18:03;97163.44;;;25.86;34.75
67818;BME280;54614;47.576;7.524;2023-03-14T01:20:29;97151.03;;;25.85;34.96
67818;BME280;54614;47.576;7.524;2023-03-14T01:22:55;97145.91;;;25.83;34.78
67818;BME280;54614;47.576;7.524;2023-03-14T01:25:21;97134.31;;;25.83;34.53
67818;BME280;54614;47.576;7.524;2023-03-14T01:27:47;97137.25;;;25.81;34.72
67818;BME280;54614;47.576;7.524;2023-03-14T01:30:13;97132.94;;;25.80;34.97
67818;BME280;54614;47.576;7.524;2023-03-14T01:32:39;97140.75;;;25.82;34.59
67818;BME280;54614;47.576;7.524;2023-03-14T01:35:05;97133.19;;;25.79;34.82
67818;BME280;54614;47.576;7.524;2023-03-14T01:37:31;97139.41;;;25.79;34.58
67818;BME280;54614;47.576;7.524;2023-03-14T01:39:57;97128.88;;;25.78;34.51
67818;BME280;54614;47.576;7.524;2023-03-14T01:42:23;97131.56;;;25.78;34.78
67818;BME280;54614;47.576;7.524;2023-03-14T01:45:02;97140.22;;;25.80;34.85
67818;BME280;54614;47.576;7.524;2023-03-14T01:47:28;97128.63;;;25.79;34.45
67818;BME280;54614;47.576;7.524;2023-03-14T01:50:10;97128.63;;;25.79;34.66
67818;BME280;54614;47.576;7.524;2023-03-14T01:52:46;97130.75;;;25.77;34.48
67818;BME280;54614;47.576;7.524;2023-03-14T01:55:22;97125.63;;;25.76;34.55
67818;BME280;54614;47.576;7.524;2023-03-14T01:57:59;97111.09;;;25.77;34.40
67818;BME280;54614;47.576;7.524;2023-03-14T02:00:26;97107.59;;;25.76;34.66
67818;BME280;54614;47.576;7.524;2023-03-14T02:02:59;97116.72;;;25.75;34.45
67818;BME280;54614;47.576;7.524;2023-03-14T02:05:32;97105.69;;;25.77;34.68
67818;BME280;54614;47.576;7.524;2023-03-14T02:08:02;97098.94;;;25.74;34.32
67818;BME280;54614;47.576;7.524;2023-03-14T02:10:34;97087.38;;;25.74;34.44
67818;BME280;54614;47.576;7.524;2023-03-14T02:13:04;97079.03;;;25.75;34.73
67818;BME280;54614;47.576;7.524;2023-03-14T02:15:31;97068.81;;;25.77;34.53
67818;BME280;54614;47.576;7.524;2023-03-14T02:17:59;97070.66;;;25.72;34.59
67818;BME280;54614;47.576;7.524;2023-03-14T02:20:56;97066.88;;;25.73;34.37
67818;BME280;54614;47.576;7.524;2023-03-14T02:26:36;97057.19;;;25.72;34.11
67818;BME280;54614;47.576;7.524;2023-03-14T02:29:04;97044.84;;;25.76;34.03
67818;BME280;54614;47.576;7.524;2023-03-14T02:31:30;97028.13;;;25.74;34.22
67818;BME280;54614;47.576;7.524;2023-03-14T02:33:57;97033.25;;;25.75;34.13
67818;BME280;54614;47.576;7.524;2023-03-14T02:36:24;97028.94;;;25.74;34.32
67818;BME280;54614;47.576;7.524;2023-03-14T02:39:03;97025.13;;;25.70;34.46
67818;BME280;54614;47.576;7.524;2023-03-14T02:41:32;97012.47;;;25.70;34.02
67818;BME280;54614;47.576;7.524;2023-03-14T02:43:58;97014.34;;;25.70;34.16
67818;BME280;54614;47.576;7.524;2023-03-14T02:46:24;97007.66;;;25.73;34.14
67818;BME280;54614;47.576;7.524;2023-03-14T02:49:07;96996.06;;;25.72;34.27
67818;BME280;54614;47.576;7.524;2023-03-14T02:51:35;97000.63;;;25.72;34.27
67818;BME280;54614;47.576;7.524;2023-03-14T02:54:01;96993.09;;;25.74;34.03
67818;BME280;54614;47.576;7.524;2023-03-14T02:56:26;96990.94;;;25.70;34.39
67818;BME280;54614;47.576;7.524;2023-03-14T02:58:52;96997.38;;;25.69;34.63
67818;BME280;54614;47.576;7.524;2023-03-14T03:01:18;96994.44;;;25.71;34.23
67818;BME280;54614;47.576;7.524;2023-03-14T03:03:44;96987.44;;;25.70;34.32
67818;BME280;54614;47.576;7.524;2023-03-14T03:06:10;96989.31;;;25.69;34.30
67818;BME280;54614;47.576;7.524;2023-03-14T03:08:36;96990.13;;;25.70;34.08
67818;BME280;54614;47.576;7.524;2023-03-14T03:11:02;96986.63;;;25.69;34.15
67818;BME280;54614;47.576;7.524;2023-03-14T03:13:28;96980.97;;;25.71;34.25
67818;BME280;54614;47.576;7.524;2023-03-14T03:15:54;96981.50;;;25.68;34.49
67818;BME280;54614;47.576;7.524;2023-03-14T03:18:20;96973.41;;;25.68;34.30
67818;BME280;54614;47.576;7.524;2023-03-14T03:20:46;96975.03;;;25.69;34.09
67818;BME280;54614;47.576;7.524;2023-03-14T03:23:12;96970.72;;;25.68;34.33
67818;BME280;54614;47.576;7.524;2023-03-14T03:25:38;96958.31;;;25.67;34.44
67818;BME280;54614;47.576;7.524;2023-03-14T03:28:04;96961.56;;;25.69;34.01
67818;BME280;54614;47.576;7.524;2023-03-14T03:30:40;96953.50;;;25.69;34.42
67818;BME280;54614;47.576;7.524;2023-03-14T03:33:07;96959.38;;;25.66;34.28
67818;BME280;54614;47.576;7.524;2023-03-14T03:35:33;96952.13;;;25.66;34.23
67818;BME280;54614;47.576;7.524;2023-03-14T03:37:59;96952.94;;;25.67;33.99
67818;BME280;54614;47.576;7.524;2023-03-14T03:40:25;96945.34;;;25.64;34.00
67818;BME280;54614;47.576;7.524;2023-03-14T03:42:51;96947.81;;;25.65;33.97
67818;BME280;54614;47.576;7.524;2023-03-14T03:45:16;96945.94;;;25.66;34.06
67818;BME280;54614;47.576;7.524;2023-03-14T03:47:42;96939.47;;;25.67;34.23
67818;BME280;54614;47.576;7.524;2023-03-14T03:50:09;96928.97;;;25.65;34.27
67818;BME280;54614;47.576;7.524;2023-03-14T03:52:35;96918.19;;;25.65;34.07
67818;BME280;54614;47.576;7.524;2023-03-14T03:55:00;96921.09;;;25.64;34.31
67818;BME280;54614;47.576;7.524;2023-03-14T03:57:26;96910.59;;;25.62;34.31
67818;BME280;54614;47.576;7.524;2023-03-14T03:59:52;96892.28;;;25.59;34.26
67818;BME280;54614;47.576;7.524;2023-03-14T04:02:18;96891.72;;;25.57;34.20
67818;BME280;54614;47.576;7.524;2023-03-14T04:04:44;96894.44;;;25.62;34.19
67818;BME280;54614;47.576;7.524;2023-03-14T04:07:10;96878.00;;;25.59;34.20
67818;BME280;54614;47.576;7.524;2023-03-14T04:09:38;96880.97;;;25.62;34.04
67818;BME280;54614;47.576;7.524;2023-03-14T04:12:03;96878.28;;;25.62;34.25
67818;BME280;54614;47.576;7.524;2023-03-14T04:14:29;96878.84;;;25.64;34.19
67818;BME280;54614;47.576;7.524;2023-03-14T04:16:55;96868.59;;;25.61;34.15
67818;BME280;54614;47.576;7.524;2023-03-14T04:19:21;96882.06;;;25.61;34.08
67818;BME280;54614;47.576;7.524;2023-03-14T04:21:47;96876.66;;;25.61;33.95
67818;BME280;54614;47.576;7.524;2023-03-14T04:24:13;96874.78;;;25.62;34.16
67818;BME280;54614;47.576;7.524;2023-03-14T04:26:39;96864.81;;;25.62;33.92
67818;BME280;54614;47.576;7.524;2023-03-14T04:29:05;96858.91;;;25.60;33.89
67818;BME280;54614;47.576;7.524;2023-03-14T04:31:30;96859.16;;;25.59;34.15
67818;BME280;54614;47.576;7.524;2023-03-14T04:33:56;96867.78;;;25.61;34.11
67818;BME280;54614;47.576;7.524;2023-03-14T04:36:22;96868.81;;;25.55;34.15
67818;BME280;54614;47.576;7.524;2023-03-14T04:38:48;96864.28;;;25.60;33.96
67818;BME280;54614;47.576;7.524;2023-03-14T04:41:13;96860.50;;;25.61;33.84
67818;BME280;54614;47.576;7.524;2023-03-14T04:43:39;96857.81;;;25.61;34.23
67818;BME280;54614;47.576;7.524;2023-03-14T04:46:05;96840.31;;;25.59;34.21
67818;BME280;54614;47.576;7.524;2023-03-14T04:48:31;96833.31;;;25.58;34.05
67818;BME280;54614;47.576;7.524;2023-03-14T04:50:57;96823.88;;;25.60;33.98
67818;BME280;54614;47.576;7.524;2023-03-14T04:53:26;96823.56;;;25.52;34.46
67818;BME280;54614;47.576;7.524;2023-03-14T04:55:56;96818.72;;;25.49;34.30
67818;BME280;54614;47.576;7.524;2023-03-14T04:58:23;96803.94;;;25.56;33.95
67818;BME280;54614;47.576;7.524;2023-03-14T05:00:50;96799.13;;;25.58;34.27
67818;BME280;54614;47.576;7.524;2023-03-14T05:03:17;96793.22;;;25.61;34.22
67818;BME280;54614;47.576;7.524;2023-03-14T05:05:44;96788.34;;;25.58;33.77
67818;BME280;54614;47.576;7.524;2023-03-14T05:08:10;96791.03;;;25.58;33.84
67818;BME280;54614;47.576;7.524;2023-03-14T05:10:37;96787.28;;;25.59;33.70
67818;BME280;54614;47.576;7.524;2023-03-14T05:13:03;96775.69;;;25.59;34.16
67818;BME280;54614;47.576;7.524;2023-03-14T05:15:29;96774.31;;;25.51;34.29
67818;BME280;54614;47.576;7.524;2023-03-14T05:17:55;96784.59;;;25.59;33.70
67818;BME280;54614;47.576;7.524;2023-03-14T05:20:21;96776.78;;;25.63;33.83
67818;BME280;54614;47.576;7.524;2023-03-14T05:22:47;96780.81;;;25.60;33.52
67818;BME280;54614;47.576;7.524;2023-03-14T05:25:12;96767.63;;;25.59;33.58
67818;BME280;54614;47.576;7.524;2023-03-14T05:27:38;96760.88;;;25.56;33.37
67818;BME280;54614;47.576;7.524;2023-03-14T05:30:05;96751.97;;;25.51;33.20
67818;BME280;54614;47.576;7.524;2023-03-14T05:32:31;96748.19;;;25.47;33.33
67818;BME280;54614;47.576;7.524;2023-03-14T05:34:57;96751.59;;;25.32;32.98
67818;BME280;54614;47.576;7.524;2023-03-14T05:37:26;96746.19;;;25.27;32.99
67818;BME280;54614;47.576;7.524;2023-03-14T05:39:52;96744.50;;;25.16;33.53
67818;BME280;54614;47.576;7.524;2023-03-14T05:42:18;96744.78;;;25.19;33.25
67818;BME280;54614;47.576;7.524;2023-03-14T05:44:44;96742.94;;;25.25;33.27
67818;BME280;54614;47.576;7.524;2023-03-14T05:47:10;96746.34;;;25.10;33.08
67818;BME280;54614;47.576;7.524;2023-03-14T05:49:36;96740.63;;;25.01;33.24
67818;BME280;54614;47.576;7.524;2023-03-14T05:52:02;96741.72;;;25.00;33.26
67818;BME280;54614;47.576;7.524;2023-03-14T05:54:28;96745.31;;;25.16;33.41
67818;BME280;54614;47.576;7.524;2023-03-14T05:56:53;96740.75;;;25.17;33.26
67818;BME280;54614;47.576;7.524;2023-03-14T05:59:19;96743.69;;;25.15;33.00
67818;BME280;54614;47.576;7.524;2023-03-14T06:01:45;96751.19;;;25.08;33.27
67818;BME280;54614;47.576;7.524;2023-03-14T06:04:11;96748.19;;;25.04;33.12
67818;BME280;54614;47.576;7.524;2023-03-14T06:06:36;96748.72;;;25.01;33.11
67818;BME280;54614;47.576;7.524;2023-03-14T06:09:02;96747.44;;;25.14;33.24
67818;BME280;54614;47.576;7.524;2023-03-14T06:11:28;96743.41;;;25.12;33.01
67818;BME280;54614;47.576;7.524;2023-03-14T06:13:54;96742.59;;;25.11;33.17
67818;BME280;54614;47.576;7.524;2023-03-14T06:16:20;96745.25;;;25.06;33.16
67818;BME280;54614;47.576;7.524;2023-03-14T06:18:45;96738.25;;;25.05;32.92
67818;BME280;54614;47.576;7.524;2023-03-14T06:21:12;96740.56;;;24.96;36.87
67818;BME280;54614;47.576;7.524;2023-03-14T06:23:38;96733.50;;;25.22;35.61
67818;BME280;54614;47.576;7.524;2023-03-14T06:26:04;96733.34;;;25.39;33.58
67818;BME280;54614;47.576;7.524;2023-03-14T06:28:31;96733.78;;;24.89;39.48
67818;BME280;54614;47.576;7.524;2023-03-14T06:30:58;96723.19;;;24.72;39.54
67818;BME280;54614;47.576;7.524;2023-03-14T06:33:24;96730.66;;;24.65;39.31
67818;BME280;54614;47.576;7.524;2023-03-14T06:35:50;96732.47;;;24.91;37.85
67818;BME280;54614;47.576;7.524;2023-03-14T06:38:15;96726.50;;;25.21;36.15
67818;BME280;54614;47.576;7.524;2023-03-14T06:40:41;96729.09;;;25.53;34.96
67818;BME280;54614;47.576;7.524;2023-03-14T06:43:07;96734.47;;;25.53;35.00
67818;BME280;54614;47.576;7.524;2023-03-14T06:45:33;96737.72;;;25.55;35.28
67818;BME280;54614;47.576;7.524;2023-03-14T06:47:59;96732.53;;;25.38;35.78
67818;BME280;54614;47.576;7.524;2023-03-14T06:50:25;96729.84;;;25.44;35.26
67818;BME280;54614;47.576;7.524;2023-03-14T06:52:50;96747.75;;;25.65;34.24
67818;BME280;54614;47.576;7.524;2023-03-14T06:55:16;96732.41;;;25.65;33.92
67818;BME280;54614;47.576;7.524;2023-03-14T06:57:43;96736.41;;;25.63;34.18
67818;BME280;54614;47.576;7.524;2023-03-14T07:00:11;96744.50;;;25.63;34.09
67818;BME280;54614;47.576;7.524;2023-03-14T07:02:36;96743.94;;;25.61;33.88
67818;BME280;54614;47.576;7.524;2023-03-14T07:05:03;96745.88;;;25.65;33.89
67818;BME280;54614;47.576;7.524;2023-03-14T07:07:29;96744.81;;;25.66;33.74
67818;BME280;54614;47.576;7.524;2023-03-14T07:09:55;96754.44;;;25.62;33.80
67818;BME280;54614;47.576;7.524;2023-03-14T07:12:21;96748.56;;;25.65;33.46
67818;BME280;54614;47.576;7.524;2023-03-14T07:14:47;96759.34;;;25.65;33.44
67818;BME280;54614;47.576;7.524;2023-03-14T07:17:13;96758.53;;;25.65;33.26
67818;BME280;54614;47.576;7.524;2023-03-14T07:19:38;96764.72;;;25.65;33.24
67818;BME280;54614;47.576;7.524;2023-03-14T07:22:05;96767.63;;;25.59;33.40
67818;BME280;54614;47.576;7.524;2023-03-14T07:24:31;96777.88;;;25.62;33.33
67818;BME280;54614;47.576;7.524;2023-03-14T07:26:57;96790.50;;;25.61;32.77
67818;BME280;54614;47.576;7.524;2023-03-14T07:29:23;96785.69;;;25.63;33.00
67818;BME280;54614;47.576;7.524;2023-03-14T07:31:49;96784.06;;;25.62;32.98
67818;BME280;54614;47.576;7.524;2023-03-14T07:34:15;96787.56;;;25.63;33.20
67818;BME280;54614;47.576;7.524;2023-03-14T07:36:41;96793.22;;;25.61;32.77
67818;BME280;54614;47.576;7.524;2023-03-14T07:39:07;96795.34;;;25.59;33.15
67818;BME280;54614;47.576;7.524;2023-03-14T07:41:32;96806.41;;;25.63;32.81
67818;BME280;54614;47.576;7.524;2023-03-14T07:43:58;96803.97;;;25.61;33.20
67818;BME280;54614;47.576;7.524;2023-03-14T07:46:25;96800.22;;;25.62;33.05
67818;BME280;54614;47.576;7.524;2023-03-14T07:48:50;96806.16;;;25.64;33.10
67818;BME280;54614;47.576;7.524;2023-03-14T07:51:16;96811.78;;;25.63;33.15
67818;BME280;54614;47.576;7.524;2023-03-14T07:53:42;96813.69;;;25.62;33.21
67818;BME280;54614;47.576;7.524;2023-03-14T07:56:09;96810.72;;;25.64;33.23
67818;BME280;54614;47.576;7.524;2023-03-14T07:58:35;96810.97;;;25.62;33.64
67818;BME280;54614;47.576;7.524;2023-03-14T08:01:00;96817.69;;;25.60;33.59
67818;BME280;54614;47.576;7.524;2023-03-14T08:03:26;96816.34;;;25.57;33.52
67818;BME280;54614;47.576;7.524;2023-03-14T08:05:52;96812.06;;;25.61;33.26
67818;BME280;54614;47.576;7.524;2023-03-14T08:08:19;96820.41;;;25.60;33.16
67818;BME280;54614;47.576;7.524;2023-03-14T08:10:45;96818.78;;;25.59;33.21
67818;BME280;54614;47.576;7.524;2023-03-14T08:13:12;96827.09;;;25.57;33.23
67818;BME280;54614;47.576;7.524;2023-03-14T08:15:38;96816.63;;;25.61;33.32
67818;BME280;54614;47.576;7.524;2023-03-14T08:18:04;96823.09;;;25.60;33.38
67818;BME280;54614;47.576;7.524;2023-03-14T08:20:31;96827.66;;;25.59;33.28
67818;BME280;54614;47.576;7.524;2023-03-14T08:23:01;96836.00;;;25.58;33.44
67818;BME280;54614;47.576;7.524;2023-03-14T08:25:28;96839.50;;;25.58;33.57
67818;BME280;54614;47.576;7.524;2023-03-14T08:27:55;96842.75;;;25.60;33.53
67818;BME280;54614;47.576;7.524;2023-03-14T08:30:22;96834.13;;;25.58;33.44
67818;BME280;54614;47.576;7.524;2023-03-14T08:32:48;96840.03;;;25.60;33.52
67818;BME280;54614;47.576;7.524;2023-03-14T08:35:14;96840.34;;;25.64;33.21
67818;BME280;54614;47.576;7.524;2023-03-14T08:37:40;96835.22;;;25.62;33.29
67818;BME280;54614;47.576;7.524;2023-03-14T08:40:08;96836.53;;;25.60;33.39
67818;BME280;54614;47.576;7.524;2023-03-14T08:42:36;96842.75;;;25.60;33.21
67818;BME280;54614;47.576;7.524;2023-03-14T08:45:04;96855.13;;;25.61;33.28
67818;BME280;54614;47.576;7.524;2023-03-14T08:47:30;96859.97;;;25.59;33.11
67818;BME280;54614;47.576;7.524;2023-03-14T08:49:56;96855.09;;;25.56;33.67
67818;BME280;54614;47.576;7.524;2023-03-14T08:52:22;96868.56;;;25.56;33.67
67818;BME280;54614;47.576;7.524;2023-03-14T08:54:48;96856.47;;;25.59;33.36
67818;BME280;54614;47.576;7.524;2023-03-14T08:57:14;96866.41;;;25.58;33.20
67818;BME280;54614;47.576;7.524;2023-03-14T08:59:40;96865.88;;;25.56;33.43
67818;BME280;54614;47.576;7.524;2023-03-14T09:02:09;96864.50;;;25.54;33.57
67818;BME280;54614;47.576;7.524;2023-03-14T09:04:36;96867.50;;;25.57;33.43
67818;BME280;54614;47.576;7.524;2023-03-14T09:07:01;96879.31;;;25.56;33.00
67818;BME280;54614;47.576;7.524;2023-03-14T09:09:28;96878.44;;;25.46;33.04
67818;BME280;54614;47.576;7.524;2023-03-14T09:11:56;96880.53;;;25.38;33.30
67818;BME280;54614;47.576;7.524;2023-03-14T09:14:22;96893.63;;;25.25;33.27
67818;BME280;54614;47.576;7.524;2023-03-14T09:16:49;96890.94;;;25.25;33.75
67818;BME280;54614;47.576;7.524;2023-03-14T09:19:14;96901.34;;;25.16;33.71
67818;BME280;54614;47.576;7.524;2023-03-14T09:21:40;96913.56;;;25.29;34.15
67818;BME280;54614;47.576;7.524;2023-03-14T09:24:06;96923.59;;;25.38;33.95
67818;BME280;54614;47.576;7.524;2023-03-14T09:26:32;96910.44;;;25.42;33.65
67818;BME280;54614;47.576;7.524;2023-03-14T09:28:58;96901.81;;;25.40;34.10
67818;BME280;54614;47.576;7.524;2023-03-14T09:31:24;96914.25;;;25.46;33.77
67818;BME280;54614;47.576;7.524;2023-03-14T09:33:50;96921.81;;;25.49;33.75
67818;BME280;54614;47.576;7.524;2023-03-14T09:36:16;96919.63;;;25.46;33.67
67818;BME280;54614;47.576;7.524;2023-03-14T09:38:41;96936.59;;;25.47;33.73
67818;BME280;54614;47.576;7.524;2023-03-14T09:41:27;96944.97;;;25.50;33.87
67818;BME280;54614;47.576;7.524;2023-03-14T09:44:32;96957.56;;;25.45;33.87
67818;BME280;54614;47.576;7.524;2023-03-14T09:47:05;96954.88;;;25.45;34.09
67818;BME280;54614;47.576;7.524;2023-03-14T09:49:39;96957.31;;;25.46;34.09
67818;BME280;54614;47.576;7.524;2023-03-14T09:54:50;96971.78;;;25.40;34.10
67818;BME280;54614;47.576;7.524;2023-03-14T09:57:21;96984.22;;;25.46;34.40
67818;BME280;54614;47.576;7.524;2023-03-14T09:59:51;96983.16;;;25.47;33.99
67818;BME280;54614;47.576;7.524;2023-03-14T10:02:25;96984.22;;;25.46;34.20
67818;BME280;54614;47.576;7.524;2023-03-14T10:04:53;96986.41;;;25.49;33.86
67818;BME280;54614;47.576;7.524;2023-03-14T10:07:31;96990.16;;;25.48;34.02
67818;BME280;54614;47.576;7.524;2023-03-14T10:09:59;96992.88;;;25.48;34.25
67818;BME280;54614;47.576;7.524;2023-03-14T10:12:36;96989.34;;;25.48;34.41
67818;BME280;54614;47.576;7.524;2023-03-14T10:15:10;96987.19;;;25.45;34.14
67818;BME280;54614;47.576;7.524;2023-03-14T10:17:50;96990.94;;;25.44;34.33
67818;BME280;54614;47.576;7.524;2023-03-14T10:23:27;97007.94;;;25.49;34.46
67818;BME280;54614;47.576;7.524;2023-03-14T10:26:13;97020.59;;;25.49;34.45
67818;BME280;54614;47.576;7.524;2023-03-14T10:28:49;97022.47;;;25.48;34.26
67818;BME280;54614;47.576;7.524;2023-03-14T10:31:17;97024.91;;;25.50;34.13
67818;BME280;54614;47.576;7.524;2023-03-14T10:34:02;97036.44;;;25.45;33.98
67818;BME280;54614;47.576;7.524;2023-03-14T10:36:32;97050.72;;;25.46;34.48
67818;BME280;54614;47.576;7.524;2023-03-14T10:39:28;97055.84;;;25.47;34.16
67818;BME280;54614;47.576;7.524;2023-03-14T10:42:19;97067.13;;;25.44;34.19
67818;BME280;54614;47.576;7.524;2023-03-14T10:45:36;97083.81;;;25.46;34.55
67818;BME280;54614;47.576;7.524;2023-03-14T10:47:48;97098.03;;;25.42;34.42
67818;BME280;54614;47.576;7.524;2023-03-14T10:50:35;97096.72;;;25.44;34.33
67818;BME280;54614;47.576;7.524;2023-03-14T10:53:03;97112.81;;;25.39;34.71
67818;BME280;54614;47.576;7.524;2023-03-14T10:55:42;97120.69;;;25.46;34.12
67818;BME280;54614;47.576;7.524;2023-03-14T10:58:44;97138.22;;;25.48;34.02
67818;BME280;54614;47.576;7.524;2023-03-14T11:01:46;97132.53;;;25.45;34.08
67818;BME280;54614;47.576;7.524;2023-03-14T11:15:47;97184.50;;;25.45;34.32
67818;BME280;54614;47.576;7.524;2023-03-14T11:35:59;97258.88;;;25.51;34.31
67818;BME280;54614;47.576;7.524;2023-03-14T11:38:37;97273.06;;;25.47;34.72
67818;BME280;54614;47.576;7.524;2023-03-14T11:41:25;97275.03;;;25.51;34.48
67818;BME280;54614;47.576;7.524;2023-03-14T11:43:56;97292.81;;;25.52;34.39
67818;BME280;54614;47.576;7.524;2023-03-14T11:46:56;97300.63;;;25.54;34.17
67818;BME280;54614;47.576;7.524;2023-03-14T11:49:56;97317.53;;;25.49;34.23
67818;BME280;54614;47.576;7.524;2023-03-14T11:52:30;97316.22;;;25.52;34.28
67818;BME280;54614;47.576;7.524;2023-03-14T11:55:19;97334.31;;;25.56;34.29
67818;BME280;54614;47.576;7.524;2023-03-14T11:57:49;97350.97;;;25.53;34.33
67818;BME280;54614;47.576;7.524;2023-03-14T12:00:22;97354.72;;;25.52;34.30
67818;BME280;54614;47.576;7.524;2023-03-14T12:03:16;97369.00;;;25.53;34.39
67818;BME280;54614;47.576;7.524;2023-03-14T12:11:19;97400.25;;;25.54;34.27
67818;BME280;54614;47.576;7.524;2023-03-14T12:13:52;97432.31;;;25.55;34.38
67818;BME280;54614;47.576;7.524;2023-03-14T12:16:38;97431.25;;;25.56;34.06
67818;BME280;54614;47.576;7.524;2023-03-14T12:19:39;97451.72;;;25.57;34.01
67818;BME280;54614;47.576;7.524;2023-03-14T12:24:53;97468.38;;;25.54;33.96
67818;BME280;54614;47.576;7.524;2023-03-14T12:30:37;97488.28;;;25.53;34.28
67818;BME280;54614;47.576;7.524;2023-03-14T12:35:50;97514.06;;;25.49;34.18
67818;BME280;54614;47.576;7.524;2023-03-14T12:38:32;97529.16;;;25.50;34.53
67818;BME280;54614;47.576;7.524;2023-03-14T12:41:16;97519.69;;;25.48;34.20
67818;BME280;54614;47.576;7.524;2023-03-14T12:43:43;97514.06;;;25.49;34.01
67818;BME280;54614;47.576;7.524;2023-03-14T12:51:36;97535.13;;;25.52;34.07
67818;BME280;54614;47.576;7.524;2023-03-14T13:02:42;97554.84;;;25.41;34.38
67818;BME280;54614;47.576;7.524;2023-03-14T13:05:23;97557.03;;;25.44;34.18
67818;BME280;54614;47.576;7.524;2023-03-14T13:15:48;97566.03;;;25.50;33.89
67818;BME280;54614;47.576;7.524;2023-03-14T13:18:36;97563.00;;;25.46;33.90
67818;BME280;54614;47.576;7.524;2023-03-14T13:21:19;97560.78;;;25.43;34.40
67818;BME280;54614;47.576;7.524;2023-03-14T13:26:45;97561.94;;;25.47;34.20
67818;BME280;54614;47.576;7.524;2023-03-14T13:29:19;97554.25;;;25.39;34.58
67818;BME280;54614;47.576;7.524;2023-03-14T13:31:48;97565.03;;;25.39;34.50
67818;BME280;54614;47.576;7.524;2023-03-14T13:34:14;97556.72;;;25.41;34.40
67818;BME280;54614;47.576;7.524;2023-03-14T13:36:40;97559.16;;;25.42;34.14
67818;BME280;54614;47.576;7.524;2023-03-14T13:39:24;97566.03;;;25.50;33.94
67818;BME280;54614;47.576;7.524;2023-03-14T13:41:59;97575.16;;;25.49;33.90
67818;BME280;54614;47.576;7.524;2023-03-14T13:47:02;97585.94;;;25.49;33.79
67818;BME280;54614;47.576;7.524;2023-03-14T13:49:32;97593.19;;;25.48;34.08
67818;BME280;54614;47.576;7.524;2023-03-14T13:52:02;97596.84;;;25.42;34.23
67818;BME280;54614;47.576;7.524;2023-03-14T13:54:31;97599.06;;;25.45;34.12
67818;BME280;54614;47.576;7.524;2023-03-14T13:57:03;97606.81;;;25.42;34.19
67818;BME280;54614;47.576;7.524;2023-03-14T13:59:34;97610.88;;;25.44;34.23
67818;BME280;54614;47.576;7.524;2023-03-14T14:02:12;97612.19;;;25.42;34.13
67818;BME280;54614;47.576;7.524;2023-03-14T14:04:38;97610.41;;;25.47;34.40
67818;BME280;54614;47.576;7.524;2023-03-14T14:07:16;97610.75;;;25.51;34.00
67818;BME280;54614;47.576;7.524;2023-03-14T14:09:51;97610.75;;;25.51;33.90
67818;BME280;54614;47.576;7.524;2023-03-14T14:12:25;97606.66;;;25.48;33.84
67818;BME280;54614;47.576;7.524;2023-03-14T14:15:27;97612.84;;;25.49;34.30
67818;BME280;54614;47.576;7.524;2023-03-14T14:18:00;97614.41;;;25.45;34.32
67818;BME280;54614;47.576;7.524;2023-03-14T14:20:38;97607.63;;;25.42;34.23
67818;BME280;54614;47.576;7.524;2023-03-14T14:23:11;97605.75;;;25.43;34.24
67818;BME280;54614;47.576;7.524;2023-03-14T14:25:38;97607.13;;;25.45;34.30
67818;BME280;54614;47.576;7.524;2023-03-14T14:28:33;97611.13;;;25.43;34.43
67818;BME280;54614;47.576;7.524;2023-03-14T14:31:19;97609.84;;;25.45;34.28
67818;BME280;54614;47.576;7.524;2023-03-14T14:34:01;97606.06;;;25.46;34.02